Terminal Aerodrome Forecast
Issued by NWS Tuscon, AZ

Home | Current Version | Previous Version | Text Only | Print | Product List | Glossary On
Versions: 1 2 3 4 5 6 7 8 9 10 11 12 13
000
FTUS45 KTWC 221733
TAFTUS
TAF
KTUS 221733Z 2218/2318 18005KT P6SM SKC
     FM222000 29009KT P6SM FEW250
     FM222200 29011G18KT P6SM SCT250
     FM230200 26007KT P6SM FEW150 SCT250
     FM230700 16005KT P6SM FEW250=

USA.gov is the U.S. government's official web portal to all federal, state and local government web resources and services.